createdAt,value
2019-06-25T00:00:27.596Z,995.97
2019-06-25T00:01:27.587Z,995.97
2019-06-25T00:02:27.574Z,995.97
2019-06-25T00:03:27.560Z,996.02
2019-06-25T00:04:27.547Z,996.00
2019-06-25T00:05:27.536Z,995.99
2019-06-25T00:06:27.519Z,995.93
2019-06-25T00:07:27.514Z,995.90
2019-06-25T00:08:27.501Z,995.93
2019-06-25T00:09:27.504Z,995.90
2019-06-25T00:10:27.472Z,995.89
2019-06-25T00:11:27.461Z,995.88
2019-06-25T00:12:27.452Z,995.87
2019-06-25T00:13:27.438Z,995.85
2019-06-25T00:14:27.429Z,995.85
2019-06-25T00:15:27.410Z,995.83
2019-06-25T00:16:27.417Z,995.83
2019-06-25T00:17:27.388Z,995.84
2019-06-25T00:18:27.398Z,995.81
2019-06-25T00:19:27.361Z,995.83
2019-06-25T00:20:27.357Z,995.83
2019-06-25T00:21:27.339Z,995.81
2019-06-25T00:22:27.328Z,995.84
2019-06-25T00:23:27.311Z,995.81
2019-06-25T00:24:27.298Z,995.82
2019-06-25T00:25:27.293Z,995.80
2019-06-25T00:26:27.277Z,995.81
2019-06-25T00:27:27.268Z,995.81
2019-06-25T00:28:27.259Z,995.82
2019-06-25T00:29:27.239Z,995.84
2019-06-25T00:30:27.229Z,995.81
2019-06-25T00:31:27.215Z,995.88
2019-06-25T00:32:27.203Z,995.86
2019-06-25T00:33:27.197Z,995.90
2019-06-25T00:34:27.183Z,995.86
2019-06-25T00:35:27.167Z,995.85
2019-06-25T00:36:27.154Z,995.87
2019-06-25T00:37:27.139Z,995.84
2019-06-25T00:38:27.129Z,995.85
2019-06-25T00:39:27.138Z,995.85
2019-06-25T00:40:27.105Z,995.84
2019-06-25T00:41:27.089Z,995.86
2019-06-25T00:42:27.076Z,995.87
2019-06-25T00:43:27.065Z,995.84
2019-06-25T00:44:27.052Z,995.87
2019-06-25T00:45:27.041Z,995.87
2019-06-25T00:46:27.041Z,995.86
2019-06-25T00:47:27.021Z,995.84
2019-06-25T00:48:27.004Z,995.87
2019-06-25T00:49:26.989Z,995.82
2019-06-25T00:50:26.980Z,995.78
2019-06-25T00:51:26.961Z,995.79
2019-06-25T00:52:26.953Z,995.78
2019-06-25T00:53:26.939Z,995.71
2019-06-25T00:54:26.929Z,995.74
2019-06-25T00:55:26.914Z,995.74
2019-06-25T00:56:26.904Z,995.73
2019-06-25T00:57:26.888Z,995.78
2019-06-25T00:58:26.876Z,995.74
2019-06-25T00:59:26.875Z,995.76
2019-06-25T01:00:26.854Z,995.77
2019-06-25T01:01:26.840Z,995.78
2019-06-25T01:02:26.828Z,995.72
2019-06-25T01:03:26.816Z,995.79
2019-06-25T01:04:26.807Z,995.76
2019-06-25T01:05:26.790Z,995.76
2019-06-25T01:06:26.778Z,995.76
2019-06-25T01:07:26.770Z,995.70
2019-06-25T01:08:26.753Z,995.75
2019-06-25T01:09:26.744Z,995.73
2019-06-25T01:10:26.737Z,995.68
2019-06-25T01:11:26.714Z,995.64
2019-06-25T01:12:26.716Z,995.63
2019-06-25T01:13:26.689Z,995.58
2019-06-25T01:14:26.681Z,995.58
2019-06-25T01:15:26.675Z,995.59
2019-06-25T01:16:26.652Z,995.56
2019-06-25T01:17:26.642Z,995.54
2019-06-25T01:18:26.633Z,995.56
2019-06-25T01:19:26.614Z,995.58
2019-06-25T01:20:26.600Z,995.53
2019-06-25T01:21:26.589Z,995.55
2019-06-25T01:22:26.577Z,995.61
2019-06-25T01:23:26.570Z,995.55
2019-06-25T01:24:26.568Z,995.55
2019-06-25T01:25:26.552Z,995.56
2019-06-25T01:26:26.527Z,995.55
2019-06-25T01:27:26.514Z,995.56
2019-06-25T01:28:26.502Z,995.60
2019-06-25T01:29:26.485Z,995.57
2019-06-25T01:30:29.880Z,995.59
2019-06-25T01:31:26.461Z,995.59
2019-06-25T01:32:26.454Z,995.56
2019-06-25T01:33:26.445Z,995.56
2019-06-25T01:34:26.431Z,995.54
2019-06-25T01:35:26.425Z,995.59
2019-06-25T01:36:26.401Z,995.65
2019-06-25T01:37:26.387Z,995.62
2019-06-25T01:38:26.384Z,995.59
2019-06-25T01:39:26.365Z,995.61
2019-06-25T01:40:26.352Z,995.60
2019-06-25T01:41:26.358Z,995.64
2019-06-25T01:42:26.322Z,995.63
2019-06-25T01:43:26.310Z,995.64
2019-06-25T01:44:26.349Z,995.63
2019-06-25T01:45:26.302Z,995.62
2019-06-25T01:46:26.274Z,995.65
2019-06-25T01:47:26.264Z,995.63
2019-06-25T01:48:26.249Z,995.63
2019-06-25T01:49:26.236Z,995.61
2019-06-25T01:50:26.282Z,995.61
2019-06-25T01:51:26.219Z,995.59
2019-06-25T01:52:26.199Z,995.60
2019-06-25T01:53:26.188Z,995.58
2019-06-25T01:54:26.173Z,995.59
2019-06-25T01:55:26.162Z,995.59
2019-06-25T01:56:26.150Z,995.57
2019-06-25T01:57:26.142Z,995.59
2019-06-25T01:58:26.124Z,995.58
2019-06-25T01:59:26.109Z,995.58
2019-06-25T02:00:26.104Z,995.59
2019-06-25T02:01:26.086Z,995.61
2019-06-25T02:02:26.071Z,995.61
2019-06-25T02:03:26.058Z,995.60
2019-06-25T02:04:26.048Z,995.58
2019-06-25T02:05:26.032Z,995.57
2019-06-25T02:06:26.018Z,995.55
2019-06-25T02:07:26.009Z,995.53
2019-06-25T02:08:25.996Z,995.49
2019-06-25T02:09:25.984Z,995.52
2019-06-25T02:10:25.982Z,995.47
2019-06-25T02:11:25.957Z,995.50
2019-06-25T02:12:25.944Z,995.50
2019-06-25T02:13:25.932Z,995.44
2019-06-25T02:14:25.925Z,995.42
2019-06-25T02:15:25.906Z,995.41
2019-06-25T02:16:25.892Z,995.36
2019-06-25T02:17:25.885Z,995.36
2019-06-25T02:18:29.230Z,995.36
2019-06-25T02:19:25.862Z,995.36
2019-06-25T02:20:25.859Z,995.39
2019-06-25T02:21:25.838Z,995.36
2019-06-25T02:22:25.817Z,995.42
2019-06-25T02:23:25.805Z,995.39
2019-06-25T02:24:25.791Z,995.41
2019-06-25T02:25:25.776Z,995.39
2019-06-25T02:26:25.770Z,995.44
2019-06-25T02:27:25.755Z,995.44
2019-06-25T02:28:25.738Z,995.40
2019-06-25T02:29:25.729Z,995.47
2019-06-25T02:30:25.730Z,995.44
2019-06-25T02:31:25.713Z,995.50
2019-06-25T02:32:25.688Z,995.46
2019-06-25T02:33:25.679Z,995.50
2019-06-25T02:34:25.672Z,995.47
2019-06-25T02:35:25.650Z,995.49
2019-06-25T02:36:25.665Z,995.49
2019-06-25T02:37:25.631Z,995.49
2019-06-25T02:38:25.635Z,995.48
2019-06-25T02:39:25.601Z,995.51
2019-06-25T02:40:25.590Z,995.48
2019-06-25T02:41:25.578Z,995.47
2019-06-25T02:42:25.564Z,995.50
2019-06-25T02:43:25.553Z,995.47
2019-06-25T02:44:25.639Z,995.48
2019-06-25T02:45:25.524Z,995.47
2019-06-25T02:46:25.512Z,995.42
2019-06-25T02:47:25.507Z,995.46
2019-06-25T02:48:25.484Z,995.50
2019-06-25T02:49:25.538Z,995.50
2019-06-25T02:50:25.464Z,995.48
2019-06-25T02:51:25.477Z,995.51
2019-06-25T02:52:25.437Z,995.46
2019-06-25T02:53:25.423Z,995.45
2019-06-25T02:54:25.421Z,995.38
2019-06-25T02:55:25.402Z,995.39
2019-06-25T02:56:25.389Z,995.41
2019-06-25T02:57:25.381Z,995.37
2019-06-25T02:58:25.358Z,995.34
2019-06-25T02:59:25.384Z,995.35
2019-06-25T03:00:25.332Z,995.39
2019-06-25T03:01:29.341Z,995.38
2019-06-25T03:02:25.308Z,995.37
2019-06-25T03:03:25.293Z,995.37
2019-06-25T03:04:25.282Z,995.34
2019-06-25T03:05:25.273Z,995.38
2019-06-25T03:06:25.257Z,995.35
2019-06-25T03:07:25.250Z,995.30
2019-06-25T03:08:25.226Z,995.24
2019-06-25T03:09:25.277Z,995.30
2019-06-25T03:10:25.206Z,995.31
2019-06-25T03:11:25.194Z,995.26
2019-06-25T03:12:25.198Z,995.27
2019-06-25T03:13:25.160Z,995.32
2019-06-25T03:14:25.157Z,995.29
2019-06-25T03:15:25.141Z,995.27
2019-06-25T03:16:25.128Z,995.31
2019-06-25T03:17:25.116Z,995.27
2019-06-25T03:18:25.106Z,995.27
2019-06-25T03:19:25.091Z,995.30
2019-06-25T03:20:25.081Z,995.23
2019-06-25T03:21:25.062Z,995.23
2019-06-25T03:22:25.062Z,995.25
2019-06-25T03:23:25.038Z,995.23
2019-06-25T03:24:25.087Z,995.18
2019-06-25T03:25:25.014Z,995.19
2019-06-25T03:26:25.002Z,995.15
2019-06-25T03:27:24.999Z,995.16
2019-06-25T03:28:24.980Z,995.13
2019-06-25T03:29:24.969Z,995.11
2019-06-25T03:30:24.960Z,995.14
2019-06-25T03:31:24.938Z,995.15
2019-06-25T03:32:24.924Z,995.20
2019-06-25T03:33:24.914Z,995.21
2019-06-25T03:34:24.903Z,995.16
2019-06-25T03:35:24.911Z,995.17
2019-06-25T03:36:24.879Z,995.21
2019-06-25T03:37:24.866Z,995.17
2019-06-25T03:38:24.855Z,995.16
2019-06-25T03:39:24.832Z,995.18
2019-06-25T03:40:24.821Z,995.14
2019-06-25T03:41:24.827Z,995.19
2019-06-25T03:42:24.798Z,995.24
2019-06-25T03:43:24.789Z,995.21
2019-06-25T03:44:24.772Z,995.24
2019-06-25T03:45:24.751Z,995.22
2019-06-25T03:46:24.747Z,995.29
2019-06-25T03:47:24.730Z,995.27
2019-06-25T03:48:24.737Z,995.31
2019-06-25T03:49:24.711Z,995.33
2019-06-25T03:50:24.711Z,995.34
2019-06-25T03:51:24.681Z,995.36
2019-06-25T03:52:24.666Z,995.37
2019-06-25T03:53:24.665Z,995.36
2019-06-25T03:54:24.645Z,995.40
2019-06-25T03:55:24.631Z,995.36
2019-06-25T03:56:24.617Z,995.38
2019-06-25T03:57:24.638Z,995.43
2019-06-25T03:58:24.592Z,995.42
2019-06-25T03:59:24.626Z,995.47
2019-06-25T04:00:24.640Z,995.46
2019-06-25T04:01:24.580Z,995.50
2019-06-25T04:02:24.539Z,995.53
2019-06-25T04:03:24.583Z,995.50
2019-06-25T04:04:24.637Z,995.51
2019-06-25T04:05:24.502Z,995.51
2019-06-25T04:06:24.492Z,995.54
2019-06-25T04:07:24.478Z,995.56
2019-06-25T04:08:24.463Z,995.57
2019-06-25T04:09:24.456Z,995.57
2019-06-25T04:10:24.442Z,995.62
2019-06-25T04:11:24.427Z,995.61
2019-06-25T04:12:24.412Z,995.60
2019-06-25T04:13:24.400Z,995.63
2019-06-25T04:14:24.443Z,995.62
2019-06-25T04:15:24.371Z,995.63
2019-06-25T04:16:24.377Z,995.63
2019-06-25T04:17:24.350Z,995.63
2019-06-25T04:18:24.340Z,995.60
2019-06-25T04:19:24.354Z,995.60
2019-06-25T04:20:24.312Z,995.65
2019-06-25T04:21:24.303Z,995.64
2019-06-25T04:22:24.291Z,995.63
2019-06-25T04:23:24.274Z,995.67
2019-06-25T04:24:24.264Z,995.63
2019-06-25T04:25:27.099Z,995.62
2019-06-25T04:26:24.313Z,995.61
2019-06-25T04:27:24.237Z,995.68
2019-06-25T04:28:24.214Z,995.69
2019-06-25T04:29:24.200Z,995.66
2019-06-25T04:30:24.188Z,995.66
2019-06-25T04:31:24.185Z,995.73
2019-06-25T04:32:33.348Z,995.62
2019-06-25T04:33:24.151Z,995.66
2019-06-25T04:34:24.140Z,995.66
2019-06-25T04:35:24.131Z,995.68
2019-06-25T04:36:24.118Z,995.64
2019-06-25T04:37:24.103Z,995.63
2019-06-25T04:38:24.094Z,995.62
2019-06-25T04:39:24.076Z,995.62
2019-06-25T04:40:24.076Z,995.64
2019-06-25T04:41:24.054Z,995.67
2019-06-25T04:42:24.043Z,995.68
2019-06-25T04:43:24.029Z,995.65
2019-06-25T04:44:24.023Z,995.68
2019-06-25T04:45:24.005Z,995.65
2019-06-25T04:46:23.999Z,995.68
2019-06-25T04:47:23.998Z,995.63
2019-06-25T04:48:26.885Z,995.65
2019-06-25T04:49:23.959Z,995.65
2019-06-25T04:50:23.945Z,995.66
2019-06-25T04:51:23.933Z,995.69
2019-06-25T04:52:23.923Z,995.68
2019-06-25T04:53:23.914Z,995.72
2019-06-25T04:54:23.901Z,995.74
2019-06-25T04:55:23.888Z,995.71
2019-06-25T04:56:23.876Z,995.65
2019-06-25T04:57:23.867Z,995.70
2019-06-25T04:58:23.855Z,995.63
2019-06-25T04:59:23.834Z,995.62
2019-06-25T05:00:23.832Z,995.62
2019-06-25T05:01:26.737Z,995.63
2019-06-25T05:02:23.806Z,995.69
2019-06-25T05:03:23.801Z,995.68
2019-06-25T05:04:23.899Z,995.68
2019-06-25T05:05:23.773Z,995.70
2019-06-25T05:06:23.764Z,995.75
2019-06-25T05:07:23.769Z,995.72
2019-06-25T05:08:23.741Z,995.74
2019-06-25T05:09:23.742Z,995.78
2019-06-25T05:10:23.728Z,995.76
2019-06-25T05:11:23.707Z,995.75
2019-06-25T05:12:23.697Z,995.75
2019-06-25T05:13:23.688Z,995.74
2019-06-25T05:14:24.944Z,995.76
2019-06-25T05:15:23.666Z,995.77
2019-06-25T05:16:23.678Z,995.77
2019-06-25T05:17:23.641Z,995.75
2019-06-25T05:18:23.633Z,995.80
2019-06-25T05:19:23.622Z,995.79
2019-06-25T05:20:23.619Z,995.84
2019-06-25T05:21:23.668Z,995.85
2019-06-25T05:22:23.631Z,995.83
2019-06-25T05:23:23.586Z,995.90
2019-06-25T05:24:23.572Z,995.92
2019-06-25T05:25:23.566Z,995.90
2019-06-25T05:26:23.557Z,995.93
2019-06-25T05:27:23.539Z,995.90
2019-06-25T05:28:23.533Z,995.94
2019-06-25T05:29:23.519Z,995.97
2019-06-25T05:30:23.510Z,995.96
2019-06-25T05:31:25.912Z,996.01
2019-06-25T05:32:23.489Z,995.96
2019-06-25T05:33:23.480Z,995.94
2019-06-25T05:34:23.474Z,995.93
2019-06-25T05:35:24.280Z,995.99
2019-06-25T05:36:23.454Z,995.99
2019-06-25T05:37:23.446Z,995.96
2019-06-25T05:38:23.432Z,995.95
2019-06-25T05:39:23.441Z,995.97
2019-06-25T05:40:23.410Z,996.00
2019-06-25T05:41:23.400Z,996.00
2019-06-25T05:42:23.414Z,996.04
2019-06-25T05:43:23.375Z,996.02
2019-06-25T05:44:23.374Z,996.07
2019-06-25T05:45:23.362Z,996.06
2019-06-25T05:46:23.352Z,996.09
2019-06-25T05:47:23.348Z,996.13
2019-06-25T05:48:23.333Z,996.11
2019-06-25T05:49:23.327Z,996.12
2019-06-25T05:50:23.317Z,996.16
2019-06-25T05:51:23.309Z,996.13
2019-06-25T05:52:23.298Z,996.12
2019-06-25T05:53:23.296Z,996.15
2019-06-25T05:54:23.279Z,996.16
2019-06-25T05:55:23.268Z,996.17
2019-06-25T05:56:23.265Z,996.15
2019-06-25T05:57:23.252Z,996.17
2019-06-25T05:58:23.245Z,996.15
2019-06-25T05:59:23.238Z,996.14
2019-06-25T06:00:23.231Z,996.09
2019-06-25T06:01:23.221Z,996.07
2019-06-25T06:02:23.207Z,996.09
2019-06-25T06:03:23.200Z,996.11
2019-06-25T06:04:23.201Z,996.11
2019-06-25T06:05:23.185Z,996.17
2019-06-25T06:06:23.169Z,996.20
2019-06-25T06:07:23.160Z,996.22
2019-06-25T06:08:23.153Z,996.18
2019-06-25T06:09:23.149Z,996.23
2019-06-25T06:10:23.141Z,996.22
2019-06-25T06:11:26.504Z,996.26
2019-06-25T06:12:23.129Z,996.29
2019-06-25T06:13:23.114Z,996.30
2019-06-25T06:14:23.110Z,996.31
2019-06-25T06:15:23.092Z,996.35
2019-06-25T06:16:23.116Z,996.39
2019-06-25T06:17:23.084Z,996.36
2019-06-25T06:18:23.068Z,996.35
2019-06-25T06:19:23.066Z,996.43
2019-06-25T06:20:23.055Z,996.37
2019-06-25T06:21:23.046Z,996.36
2019-06-25T06:22:23.054Z,996.35
2019-06-25T06:23:23.030Z,996.38
2019-06-25T06:24:23.026Z,996.39
2019-06-25T06:25:23.013Z,996.32
2019-06-25T06:26:23.013Z,996.36
2019-06-25T06:27:22.997Z,996.39
2019-06-25T06:28:22.990Z,996.44
2019-06-25T06:29:22.984Z,996.35
2019-06-25T06:30:22.980Z,996.35
2019-06-25T06:31:23.007Z,996.37
2019-06-25T06:32:22.978Z,996.42
2019-06-25T06:33:35.636Z,996.34
2019-06-25T06:34:22.941Z,996.37
2019-06-25T06:35:22.937Z,996.33
2019-06-25T06:36:22.927Z,996.28
2019-06-25T06:37:22.920Z,996.29
2019-06-25T06:38:22.913Z,996.24
2019-06-25T06:39:22.907Z,996.23
2019-06-25T06:40:22.893Z,996.19
2019-06-25T06:41:22.908Z,996.20
2019-06-25T06:42:22.888Z,996.20
2019-06-25T06:43:22.871Z,996.12
2019-06-25T06:44:22.865Z,996.11
2019-06-25T06:45:22.856Z,996.10
2019-06-25T06:46:22.850Z,996.14
2019-06-25T06:47:22.881Z,996.14
2019-06-25T06:48:22.835Z,996.15
2019-06-25T06:49:22.826Z,996.14
2019-06-25T06:50:22.820Z,996.16
2019-06-25T06:51:22.811Z,996.13
2019-06-25T06:52:22.833Z,996.16
2019-06-25T06:53:22.792Z,996.12
2019-06-25T06:54:22.788Z,996.10
2019-06-25T06:55:22.781Z,996.08
2019-06-25T06:56:22.775Z,996.05
2019-06-25T06:57:22.768Z,996.07
2019-06-25T06:58:22.759Z,996.08
2019-06-25T06:59:22.749Z,996.07
2019-06-25T07:00:22.749Z,996.07
2019-06-25T07:01:22.744Z,996.11
2019-06-25T07:02:22.749Z,996.09
2019-06-25T07:03:22.722Z,996.12
2019-06-25T07:04:22.721Z,996.11
2019-06-25T07:05:22.708Z,996.15
2019-06-25T07:06:22.715Z,996.06
2019-06-25T07:07:22.701Z,996.19
2019-06-25T07:08:22.693Z,996.10
2019-06-25T07:09:22.684Z,996.09
2019-06-25T07:10:22.677Z,996.09
2019-06-25T07:11:22.672Z,996.08
2019-06-25T07:12:22.673Z,996.09
2019-06-25T07:13:22.657Z,996.06
2019-06-25T07:14:22.658Z,996.12
2019-06-25T07:15:22.642Z,996.17
2019-06-25T07:16:22.639Z,996.09
2019-06-25T07:17:22.639Z,996.14
2019-06-25T07:18:22.689Z,996.16
2019-06-25T07:19:22.647Z,996.18
2019-06-25T07:20:32.883Z,996.18
2019-06-25T07:21:22.609Z,996.22
2019-06-25T07:22:22.604Z,996.22
2019-06-25T07:23:22.596Z,996.24
2019-06-25T07:24:22.593Z,996.23
2019-06-25T07:25:22.592Z,996.28
2019-06-25T07:26:22.624Z,996.27
2019-06-25T07:27:22.576Z,996.23
2019-06-25T07:28:22.571Z,996.24
2019-06-25T07:29:22.562Z,996.22
2019-06-25T07:30:22.561Z,996.22
2019-06-25T07:31:22.551Z,996.29
2019-06-25T07:32:22.545Z,996.21
2019-06-25T07:33:22.545Z,996.23
2019-06-25T07:34:22.553Z,996.24
2019-06-25T07:35:22.624Z,996.23
2019-06-25T07:36:22.529Z,996.29
2019-06-25T07:37:22.519Z,996.33
2019-06-25T07:38:22.517Z,996.32
2019-06-25T07:39:22.515Z,996.35
2019-06-25T07:40:22.502Z,996.36
2019-06-25T07:41:22.495Z,996.32
2019-06-25T07:42:22.493Z,996.41
2019-06-25T07:43:22.493Z,996.35
2019-06-25T07:44:22.482Z,996.39
2019-06-25T07:45:22.481Z,996.39
2019-06-25T07:46:22.484Z,996.41
2019-06-25T07:47:22.466Z,996.42
2019-06-25T07:48:22.463Z,996.45
2019-06-25T07:49:22.462Z,996.49
2019-06-25T07:50:22.455Z,996.51
2019-06-25T07:51:22.448Z,996.50
2019-06-25T07:52:22.444Z,996.49
2019-06-25T07:53:22.453Z,996.48
2019-06-25T07:54:22.434Z,996.50
2019-06-25T07:55:22.433Z,996.51
2019-06-25T07:56:35.558Z,996.44
2019-06-25T07:57:22.419Z,996.46
2019-06-25T07:58:22.930Z,996.46
2019-06-25T07:59:22.494Z,996.49
2019-06-25T08:00:22.413Z,996.46
2019-06-25T08:01:22.407Z,996.43
2019-06-25T08:02:22.402Z,996.45
2019-06-25T08:03:22.394Z,996.43
2019-06-25T08:04:25.713Z,996.46
2019-06-25T08:05:22.386Z,996.46
2019-06-25T08:06:22.406Z,996.46
2019-06-25T08:07:22.380Z,996.46
2019-06-25T08:08:22.377Z,996.46
2019-06-25T08:09:22.373Z,996.40
2019-06-25T08:10:22.367Z,996.37
2019-06-25T08:11:22.363Z,996.39
2019-06-25T08:12:22.361Z,996.37
2019-06-25T08:13:22.358Z,996.36
2019-06-25T08:14:22.363Z,996.39
2019-06-25T08:15:22.434Z,996.46
2019-06-25T08:16:22.348Z,996.42
2019-06-25T08:17:22.368Z,996.39
2019-06-25T08:18:22.345Z,996.42
2019-06-25T08:19:22.343Z,996.38
2019-06-25T08:20:22.349Z,996.39
2019-06-25T08:21:22.341Z,996.35
2019-06-25T08:22:22.343Z,996.37
2019-06-25T08:23:22.334Z,996.33
2019-06-25T08:24:22.329Z,996.38
2019-06-25T08:25:22.324Z,996.35
2019-06-25T08:26:22.330Z,996.36
2019-06-25T08:27:22.324Z,996.38
2019-06-25T08:28:22.322Z,996.38
2019-06-25T08:29:22.318Z,996.37
2019-06-25T08:30:22.312Z,996.39
2019-06-25T08:31:22.357Z,996.38
2019-06-25T08:32:25.430Z,996.35
2019-06-25T08:33:22.317Z,996.35
2019-06-25T08:34:22.311Z,996.43
2019-06-25T08:35:22.309Z,996.44
2019-06-25T08:36:22.313Z,996.39
2019-06-25T08:37:22.304Z,996.38
2019-06-25T08:38:22.346Z,996.40
2019-06-25T08:39:22.301Z,996.38
2019-06-25T08:40:22.303Z,996.38
2019-06-25T08:41:22.302Z,996.41
2019-06-25T08:42:22.300Z,996.40
2019-06-25T08:43:22.320Z,996.40
2019-06-25T08:44:22.296Z,996.38
2019-06-25T08:45:22.299Z,996.45
2019-06-25T08:46:22.409Z,996.41
2019-06-25T08:47:22.301Z,996.39
2019-06-25T08:48:22.295Z,996.39
2019-06-25T08:49:22.300Z,996.41
2019-06-25T08:50:22.293Z,996.42
2019-06-25T08:51:22.298Z,996.41
2019-06-25T08:52:22.296Z,996.39
2019-06-25T08:53:22.291Z,996.44
2019-06-25T08:54:22.291Z,996.38
2019-06-25T08:55:22.291Z,996.44
2019-06-25T08:56:22.291Z,996.44
2019-06-25T08:57:22.290Z,996.47
2019-06-25T08:58:22.291Z,996.47
2019-06-25T08:59:22.306Z,996.42
2019-06-25T09:00:22.407Z,996.42
2019-06-25T09:01:22.284Z,996.42
2019-06-25T09:02:22.287Z,996.46
2019-06-25T09:03:22.286Z,996.45
2019-06-25T09:04:22.288Z,996.45
2019-06-25T09:05:22.288Z,996.45
2019-06-25T09:06:22.286Z,996.49
2019-06-25T09:07:22.290Z,996.50
2019-06-25T09:08:22.289Z,996.49
2019-06-25T09:09:22.287Z,996.43
2019-06-25T09:10:22.286Z,996.48
2019-06-25T09:11:22.286Z,996.48
2019-06-25T09:12:22.283Z,996.50
2019-06-25T09:13:22.286Z,996.49
2019-06-25T09:14:22.289Z,996.48
2019-06-25T09:15:22.287Z,996.48
2019-06-25T09:16:22.294Z,996.42
2019-06-25T09:17:22.293Z,996.44
2019-06-25T09:18:22.286Z,996.50
2019-06-25T09:19:22.289Z,996.44
2019-06-25T09:20:22.335Z,996.46
2019-06-25T09:21:22.291Z,996.50
2019-06-25T09:22:22.288Z,996.47
2019-06-25T09:23:22.288Z,996.46
2019-06-25T09:24:22.683Z,996.50
2019-06-25T09:25:22.301Z,996.50
2019-06-25T09:26:22.288Z,996.50
2019-06-25T09:27:22.297Z,996.50
2019-06-25T09:28:23.057Z,996.50
2019-06-25T09:29:22.290Z,996.49
2019-06-25T09:30:22.296Z,996.52
2019-06-25T09:31:22.289Z,996.47
2019-06-25T09:32:22.293Z,996.49
2019-06-25T09:33:22.297Z,996.51
2019-06-25T09:34:22.295Z,996.48
2019-06-25T09:35:22.293Z,996.45
2019-06-25T09:36:22.311Z,996.45
2019-06-25T09:37:22.296Z,996.53
2019-06-25T09:38:22.295Z,996.49
2019-06-25T09:39:22.296Z,996.49
2019-06-25T09:40:22.293Z,996.51
2019-06-25T09:41:22.343Z,996.52
2019-06-25T09:42:22.440Z,996.48
2019-06-25T09:43:22.297Z,996.50
2019-06-25T09:44:22.299Z,996.49
2019-06-25T09:45:22.300Z,996.57
2019-06-25T09:46:22.300Z,996.53
2019-06-25T09:47:22.298Z,996.55
2019-06-25T09:48:22.344Z,996.52
2019-06-25T09:49:22.305Z,996.52
2019-06-25T09:50:22.306Z,996.57
2019-06-25T09:51:22.302Z,996.49
2019-06-25T09:52:22.310Z,996.55
2019-06-25T09:53:22.410Z,996.57
2019-06-25T09:54:22.308Z,996.57
2019-06-25T09:55:22.313Z,996.54
2019-06-25T09:56:22.317Z,996.53
2019-06-25T09:57:22.316Z,996.54
2019-06-25T09:58:22.326Z,996.53
2019-06-25T09:59:22.320Z,996.55
2019-06-25T10:00:22.320Z,996.55
2019-06-25T10:01:26.288Z,996.59
2019-06-25T10:02:22.325Z,996.60
2019-06-25T10:03:22.330Z,996.58
2019-06-25T10:04:22.333Z,996.59
2019-06-25T10:05:31.604Z,996.57
2019-06-25T10:06:22.326Z,996.57
2019-06-25T10:07:22.345Z,996.55
2019-06-25T10:08:22.345Z,996.52
2019-06-25T10:09:22.335Z,996.57
2019-06-25T10:10:22.331Z,996.60
2019-06-25T10:11:22.353Z,996.64
2019-06-25T10:12:22.334Z,996.59
2019-06-25T10:13:22.341Z,996.62
2019-06-25T10:14:22.419Z,996.62
2019-06-25T10:15:22.340Z,996.62
2019-06-25T10:16:22.341Z,996.61
2019-06-25T10:17:22.342Z,996.59
2019-06-25T10:18:22.516Z,996.67
2019-06-25T10:19:22.342Z,996.64
2019-06-25T10:20:22.347Z,996.66
2019-06-25T10:21:25.557Z,996.56
2019-06-25T10:22:22.348Z,996.66
2019-06-25T10:23:22.347Z,996.60
2019-06-25T10:24:22.376Z,996.64
2019-06-25T10:25:22.352Z,996.60
2019-06-25T10:26:22.353Z,996.62
2019-06-25T10:27:22.364Z,996.58
2019-06-25T10:28:30.140Z,996.62
2019-06-25T10:29:22.355Z,996.66
2019-06-25T10:30:22.369Z,996.61
2019-06-25T10:31:22.370Z,996.65
2019-06-25T10:32:22.374Z,996.63
2019-06-25T10:33:22.593Z,996.61
2019-06-25T10:34:22.369Z,996.64
2019-06-25T10:35:22.371Z,996.65
2019-06-25T10:36:22.366Z,996.65
2019-06-25T10:37:22.407Z,996.65
2019-06-25T10:38:22.389Z,996.65
2019-06-25T10:39:23.235Z,996.64
2019-06-25T10:40:22.405Z,996.62
2019-06-25T10:41:22.373Z,996.59
2019-06-25T10:42:22.429Z,996.61
2019-06-25T10:43:22.377Z,996.65
2019-06-25T10:44:22.387Z,996.63
2019-06-25T10:45:22.414Z,996.65
2019-06-25T10:46:22.419Z,996.61
2019-06-25T10:47:22.464Z,996.66
2019-06-25T10:48:26.464Z,996.66
2019-06-25T10:49:22.408Z,996.60
2019-06-25T10:50:22.406Z,996.61
2019-06-25T10:51:22.596Z,996.59
2019-06-25T10:52:22.425Z,996.60
2019-06-25T10:53:22.406Z,996.61
2019-06-25T10:54:22.409Z,996.67
2019-06-25T10:55:22.413Z,996.59
2019-06-25T10:56:26.369Z,996.62
2019-06-25T10:57:22.411Z,996.63
2019-06-25T10:58:22.421Z,996.66
2019-06-25T10:59:22.437Z,996.65
2019-06-25T11:00:22.424Z,996.71
2019-06-25T11:01:22.423Z,996.70
2019-06-25T11:02:22.611Z,996.63
2019-06-25T11:03:22.429Z,996.66
2019-06-25T11:04:22.439Z,996.69
2019-06-25T11:05:22.435Z,996.64
2019-06-25T11:06:22.436Z,996.63
2019-06-25T11:07:22.438Z,996.61
2019-06-25T11:08:22.441Z,996.64
2019-06-25T11:09:22.462Z,996.68
2019-06-25T11:10:22.449Z,996.65
2019-06-25T11:11:22.448Z,996.64
2019-06-25T11:12:22.449Z,996.62
2019-06-25T11:13:22.479Z,996.63
2019-06-25T11:14:22.452Z,996.62
2019-06-25T11:15:22.462Z,996.66
2019-06-25T11:16:22.455Z,996.64
2019-06-25T11:17:22.483Z,996.64
2019-06-25T11:18:22.462Z,996.62
2019-06-25T11:19:22.468Z,996.62
2019-06-25T11:20:22.500Z,996.62
2019-06-25T11:21:22.470Z,996.65
2019-06-25T11:22:24.237Z,996.61
2019-06-25T11:23:22.473Z,996.61
2019-06-25T11:24:22.724Z,996.59
2019-06-25T11:25:22.483Z,996.61
2019-06-25T11:26:23.807Z,996.63
2019-06-25T11:27:22.489Z,996.58
2019-06-25T11:28:23.228Z,996.59
2019-06-25T11:29:22.558Z,996.60
2019-06-25T11:30:22.495Z,996.51
2019-06-25T11:31:22.497Z,996.55
2019-06-25T11:32:22.497Z,996.52
2019-06-25T11:33:22.504Z,996.50
2019-06-25T11:34:22.505Z,996.51
2019-06-25T11:35:22.509Z,996.50
2019-06-25T11:36:22.513Z,996.50
2019-06-25T11:37:22.516Z,996.53
2019-06-25T11:38:22.523Z,996.57
2019-06-25T11:39:22.520Z,996.53
2019-06-25T11:40:22.526Z,996.58
2019-06-25T11:41:22.554Z,996.54
2019-06-25T11:42:22.543Z,996.54
2019-06-25T11:43:22.538Z,996.55
2019-06-25T11:44:22.539Z,996.54
2019-06-25T11:45:22.545Z,996.53
2019-06-25T11:46:22.571Z,996.56
2019-06-25T11:47:22.563Z,996.54
2019-06-25T11:48:22.559Z,996.56
2019-06-25T11:49:22.558Z,996.51
2019-06-25T11:50:22.564Z,996.49
2019-06-25T11:51:22.567Z,996.50
2019-06-25T11:52:22.570Z,996.54
2019-06-25T11:53:22.574Z,996.49
2019-06-25T11:54:22.587Z,996.51
2019-06-25T11:55:22.581Z,996.48
2019-06-25T11:56:22.591Z,996.48
2019-06-25T11:57:22.616Z,996.47
2019-06-25T11:58:22.601Z,996.50
2019-06-25T11:59:22.600Z,996.44
2019-06-25T12:00:22.601Z,996.47
2019-06-25T12:01:22.607Z,996.48
2019-06-25T12:02:22.608Z,996.45
2019-06-25T12:03:22.611Z,996.46
2019-06-25T12:04:22.662Z,996.44
2019-06-25T12:05:22.626Z,996.45
2019-06-25T12:06:33.118Z,996.42
2019-06-25T12:07:22.634Z,996.44
2019-06-25T12:08:22.639Z,996.48
2019-06-25T12:09:22.650Z,996.47
2019-06-25T12:10:22.666Z,996.46
2019-06-25T12:11:22.656Z,996.50
2019-06-25T12:12:22.652Z,996.48
2019-06-25T12:13:22.666Z,996.49
2019-06-25T12:14:22.682Z,996.46
2019-06-25T12:15:22.677Z,996.49
2019-06-25T12:16:22.682Z,996.49
2019-06-25T12:17:22.687Z,996.48
2019-06-25T12:18:22.695Z,996.51
2019-06-25T12:19:22.699Z,996.48
2019-06-25T12:20:22.712Z,996.46
2019-06-25T12:21:22.708Z,996.45
2019-06-25T12:22:22.713Z,996.46
2019-06-25T12:23:22.738Z,996.47
2019-06-25T12:24:22.730Z,996.49
2019-06-25T12:25:22.741Z,996.48
2019-06-25T12:26:22.749Z,996.50
2019-06-25T12:27:22.754Z,996.49
2019-06-25T12:28:22.750Z,996.52